• Join FlightAware (Why Join?)
  • Login
  • US Flag 
01:31AM EDT


 

Airport Tracker/Info


-or-


 

Live Flight TrackerFlight Track Log ✈ N271LD ✈ 14-Oct-2013 ✈ KENW - KLSE

Flight Track Log - Related Links

Times and Time Zones

All times are in EDT time to prevent confusion due to time zone crossing. See the N271LD flight status page for this flight to view local times or setup timezone preferences in your user account.

Time Position Orientation Groundspeed Altitude Reporting Facility
EDT Latitude Longitude Course Direction KTS MPH feet Rate Location/Type
03:17PM 42.6000 -87.9000 360° North 126 145 1,200  Level KMKE
03:18PM 42.6167 -87.9000 360° North 118 136 2,200 900 Climbing KMKE
03:19PM 42.6167 -87.9500 270° West 151 174 2,900 600 Climbing KMKE
03:20PM 42.6264 -87.9747 298° West 143 165 3,200 660 Climbing Chicago Center
03:21PM 42.6481 -88.0244 301° West 153 176 4,000 360 Climbing Chicago Center
03:22PM 42.6733 -88.0858 299° West 153 176 4,000  Level Chicago Center
03:23PM 42.6950 -88.1381 299° West 156 180 4,000  Level Chicago Center
03:24PM 42.7164 -88.1894 300° West 157 181 4,000  Level Chicago Center
03:25PM 42.7364 -88.2389 299° West 154 177 4,000  Level Chicago Center
03:26PM 42.7594 -88.2883 302° West 153 176 4,000  Level Chicago Center
03:27PM 42.7811 -88.3392 300° West 155 178 4,000  Level Chicago Center
03:28PM 42.8017 -88.4003 295° West 151 174 4,000  Level Chicago Center
03:29PM 42.8214 -88.4522 295° West 152 175 4,000 -60 Level Chicago Center
03:30PM 42.8417 -88.5011 300° West 151 174 3,900 -60 Descending Chicago Center
03:31PM 42.8617 -88.5514 299° West 150 173 3,900 60 Level Chicago Center
03:32PM 42.8817 -88.6017 299° West 150 173 4,100 60 Climbing Chicago Center
03:33PM 42.9003 -88.6514 297° West 149 171 4,100  Level Chicago Center
03:34PM 42.9244 -88.7114 299° West 149 171 4,100  Level Chicago Center
03:35PM 42.9439 -88.7608 298° West 149 171 4,100  Level Chicago Center
03:36PM 42.9636 -88.8108 298° West 149 171 4,100 -60 Level Chicago Center
03:37PM 42.9831 -88.8606 298° West 149 171 4,000 -60 Descending Chicago Center
03:38PM 43.0028 -88.9114 298° West 150 173 4,000  Level Chicago Center
03:39PM 43.0231 -88.9639 298° West 152 175 4,000  Level Chicago Center
03:41PM 43.0475 -89.0233 299° West 152 175 4,000  Level Chicago Center
03:42PM 43.0664 -89.0747 297° West 151 174 4,000  Level Chicago Center
03:43PM 43.0861 -89.1250 298° West 151 174 4,000  Level Chicago Center
03:44PM 43.1053 -89.1753 298° West 150 173 4,000  Level Chicago Center
03:45PM 43.1256 -89.2269 298° West 151 174 4,000  Level Chicago Center
03:46PM 43.1456 -89.2772 299° West 151 174 4,000  Level Chicago Center
03:47PM 43.1689 -89.3392 297° West 152 175 4,000  Level Chicago Center
03:48PM 43.1886 -89.3908 298° West 153 176 4,000  Level Chicago Center
03:49PM 43.2086 -89.4425 298° West 153 176 4,000  Level Chicago Center
03:50PM 43.2278 -89.4931 298° West 152 175 4,000  Level Chicago Center
03:51PM 43.2469 -89.5453 297° West 152 175 4,000  Level Chicago Center
03:52PM 43.2667 -89.5953 298° West 151 174 4,000  Level Chicago Center
03:53PM 43.2886 -89.6553 297° West 150 173 4,000  Level Chicago Center
03:54PM 43.3086 -89.7061 298° West 149 171 4,000  Level Chicago Center
03:55PM 43.3289 -89.7583 298° West 152 175 4,000  Level Chicago Center
03:56PM 43.3483 -89.8092 298° West 152 175 4,000  Level Chicago Center
03:57PM 43.3681 -89.8608 298° West 152 175 4,000  Level Chicago Center
03:58PM 43.3875 -89.9128 297° West 152 175 4,000  Level Chicago Center
03:59PM 43.4108 -89.9747 297° West 153 176 4,100  Climbing Chicago Center
04:00PM 43.4292 -90.0269 296° West 152 175 4,100  Level Chicago Center
04:01PM 43.4494 -90.0792 298° West 153 176 4,100  Level Chicago Center
04:02PM 43.4681 -90.1311 296° West 153 176 4,100  Level Chicago Center
04:03PM 43.4883 -90.1831 298° West 153 176 4,100  Level Chicago Center
04:04PM 43.5067 -90.2356 296° West 152 175 4,100 -120 Level Chicago Center
04:05PM 43.5261 -90.2889 297° West 152 175 3,900 -120 Descending Chicago Center
04:06PM 43.5500 -90.3514 298° West 154 177 3,900  Level Chicago Center
04:07PM 43.5703 -90.4033 298° West 155 178 3,900  Level Chicago Center
04:08PM 43.5917 -90.4578 298° West 158 182 3,900  Level Chicago Center
04:09PM 43.6111 -90.5128 296° West 160 184 4,000  Climbing Chicago Center
04:11PM 43.6306 -90.5656 297° West 159 183 3,900 -60 Descending Chicago Center
04:12PM 43.6542 -90.6303 297° West 159 183 3,900  Level Chicago Center
04:13PM 43.6800 -90.7011 297° West 154 177 3,900  Level Minneapolis Center
04:14PM 43.6997 -90.7569 296° West 153 176 3,900  Level Minneapolis Center
04:15PM 43.7211 -90.8128 298° West 157 181 3,900  Level Minneapolis Center
04:16PM 43.7586 -90.8381 334° Northwest 155 178 3,900  Level Minneapolis Center
04:17PM 43.7989 -90.8658 334° Northwest 153 176 3,900  Level Minneapolis Center
04:18PM 43.8392 -90.8936 334° Northwest 155 178 3,900  Level Minneapolis Center
04:19PM 43.8797 -90.9225 333° Northwest 156 180 3,900  Level Minneapolis Center
04:20PM 43.9181 -90.9489 334° Northwest 159 183 3,900  Level Minneapolis Center
04:21PM 43.9586 -90.9775 333° Northwest 157 181 4,000  Climbing Minneapolis Center
04:22PM 43.9928 -91.0192 319° Northwest 157 181 4,000 -60 Level Minneapolis Center
04:23PM 44.0222 -91.0686 310° West 158 182 3,900  Descending Minneapolis Center
04:24PM 44.0406 -91.1217 296° West 149 171 4,000  Climbing Minneapolis Center
04:25PM 44.0567 -91.1672 296° West 140 161 4,000 -240 Level Minneapolis Center
04:26PM 44.0631 -91.2225 279° West 138 159 3,600 -300 Descending Minneapolis Center
04:27PM 44.0658 -91.2792 274° West 142 163 3,500 -120 Descending Minneapolis Center
04:28PM 44.0594 -91.3294 260° West 127 146 3,400 -60 Descending Minneapolis Center
04:29PM 44.0447 -91.3728 245° Southwest 118 136 3,400  Level Minneapolis Center
04:30PM 44.0178 -91.3894 204° Southwest 110 127 3,400 -300 Level Minneapolis Center
04:32PM 43.9850 -91.3719 159° South 128 147 2,900 -540 Descending Minneapolis Center
04:33PM 43.9567 -91.3522 153° Southeast 130 150 2,400 -540 Descending Minneapolis Center
04:35PM 43.8962 -91.2835 141° Southeast  Level FlightAware Approximate